My Meet Scores
Mila Dizon, St. Charles Gymnastics Academy - MyMeetScores.com
Top100 | Top Teams | Upcoming Meets | Completed Meets | Latest | Add Scores | Help| Support | Bookmark and Share

Mila Dizon, St. Charles Gymnastics Academy
Personal Bests
LevelVault BarsBeamFloorAA
49.0509.450 9.4259.17536.700
XP9.4509.600 9.5509.57537.550
Meet Scores
Date Meet Team Session Level Division Vault Bars Beam Floor AA
2020-02-28 MEGA Spring Invite 2020 St. Charles Gymnastics Academy 9 XP Junior B 9.225 7 9.575 1T 9.250 4 9.450 6T 37.500 2
2020-02-21 Great Western Invitational - Women's St. Charles Gymnastics Academy 08 XP Cowgirl 9.275 2 9.425 1T 9.200 4 9.150 9T 37.050 2T
2020-02-07 SCGA Classic St. Charles Gymnastics Academy 4 XP Jr B 8.725 4 9.275 1 9.425 3T 9.325 3 36.750 2
2020-01-24 King Arthur Invitational St. Charles Gymnastics Academy 10 XP SR A 9.375 2 9.600 1 8.700 6 9.425 1T 37.100 1
2020-01-10 St Jude Benefit Meet St. Charles Gymnastics Academy 6C XP Sr A 8.875 8 9.275 2T 9.550 1 9.575 3 37.275 1
2019-12-13 2019 St Nick St. Charles Gymnastics Academy 4 XP JrB 0.000 14T 9.225 2 7.600 14 0.000 14T 16.825 14
2019-05-03 2019 Region 5 Xcel Championships St. Charles Gymnastics Academy 02O XP JR C 9.075 8T 9.300 6 8.050 35 9.400 11T 35.825 27
2019-04-05 2019 Illinois XG, XP, XD State Championships St. Charles Gymnastics Academy 3 XP Jr B 9.450 3* 9.200 6T 9.375 7 9.525 4T 37.550 3T
2019-02-15 Women's Midwest Open St. Charles Gymnastics Academy 04 XP Junior A 9.100 3 9.325 5 8.750 9T 9.350 2T 36.525 3
2019-01-25 King Arthur Invitational St. Charles Gymnastics Academy 20 XP CH 9.025 8 9.175 3 8.775 8 9.325 6T 36.300 7
2019-01-11 St Jude Benefit Meet St. Charles Gymnastics Academy 1C XP Jr B 9.050 3 8.550 4 9.325 2 9.275 2 36.200 2
2018-12-07 St. Nick Invite 2018 St. Charles Gymnastics Academy 2 XP Jr 9.250 2 9.300 1 8.675 6 9.400 1 36.625 2
2018-04-06 XCEL State Championships St. Charles Gymnastics Academy 8 XP Jr A 9.150 12 8.950 10 8.300 16T 9.350 4T 35.750 12
2018-02-23 Kinetic Classic St. Charles Gymnastics Academy 1 XP Younger 8.925 52 8.350 52 8.275 61T 9.250 19T 34.800 50T
2018-02-16 Big Classic St. Charles Gymnastics Academy 8A XP Senior A 9.350 6T 8.900 5 7.550 13 9.250 5 35.050 8
2018-01-26 King Arthur Invitational St. Charles Gymnastics Academy 11 XP CH 8.600 12T 8.600 9 8.425 10 8.500 12 34.125 11
2017-12-14 2017 Women's Hawaiian Pineapple Classic St. Charles Gymnastics Academy 1B XP Ages12U 9.175 7T 8.925 9 8.800 9 8.850 10T 35.750 8
2017-12-01 Ultimate Wish Classic St. Charles Gymnastics Academy 11 XP JR 8.825 8 8.600 8T 7.400 17 9.225 3T 34.050 12
2017-06-22 2017 AAU Age Group Nationals St. Charles Gymnastics Academy B9 4 L4 b9 grp4 9.050 5 9.450 1 9.375 3 8.825 8T 36.700 4
2017-05-05 2017 AAU Midwest Regionals St. Charles Gymnastics Academy W5 4 Jr C 8.625 2 9.250 1 9.425 1 9.175 3 36.475 1
Get your scores on
a t-shirt, pin, or hoodie

www.lazysuits.com